sensor_id;sensor_type;location;lat;lon;timestamp;temperature;humidity
23100;DHT22;53791;50.696;4.396;2022-12-07T00:01:28;5.10;99.90
23100;DHT22;53791;50.696;4.396;2022-12-07T00:03:57;5.10;99.90
23100;DHT22;53791;50.696;4.396;2022-12-07T00:06:27;5.10;99.90
23100;DHT22;53791;50.696;4.396;2022-12-07T00:08:54;5.00;99.90
23100;DHT22;53791;50.696;4.396;2022-12-07T00:11:22;5.00;99.90
23100;DHT22;53791;50.696;4.396;2022-12-07T00:13:58;4.90;99.90
23100;DHT22;53791;50.696;4.396;2022-12-07T00:16:29;4.90;99.90
23100;DHT22;53791;50.696;4.396;2022-12-07T00:18:57;5.00;99.90
23100;DHT22;53791;50.696;4.396;2022-12-07T00:21:30;5.20;99.90
23100;DHT22;53791;50.696;4.396;2022-12-07T00:23:58;5.10;99.90
23100;DHT22;53791;50.696;4.396;2022-12-07T00:26:29;5.10;99.90
23100;DHT22;53791;50.696;4.396;2022-12-07T00:28:59;5.20;99.90
23100;DHT22;53791;50.696;4.396;2022-12-07T00:31:34;5.10;99.90
23100;DHT22;53791;50.696;4.396;2022-12-07T00:33:58;5.00;99.90
23100;DHT22;53791;50.696;4.396;2022-12-07T00:36:26;5.00;99.90
23100;DHT22;53791;50.696;4.396;2022-12-07T00:38:54;5.00;99.90
23100;DHT22;53791;50.696;4.396;2022-12-07T00:41:24;4.90;99.90
23100;DHT22;53791;50.696;4.396;2022-12-07T00:43:52;4.90;99.90
23100;DHT22;53791;50.696;4.396;2022-12-07T00:46:21;5.00;99.90
23100;DHT22;53791;50.696;4.396;2022-12-07T00:48:49;5.00;99.90
23100;DHT22;53791;50.696;4.396;2022-12-07T00:51:20;4.90;99.90
23100;DHT22;53791;50.696;4.396;2022-12-07T00:53:48;5.10;99.90
23100;DHT22;53791;50.696;4.396;2022-12-07T00:56:18;5.00;99.90
23100;DHT22;53791;50.696;4.396;2022-12-07T00:58:55;5.00;99.90
23100;DHT22;53791;50.696;4.396;2022-12-07T01:01:19;5.00;99.90
23100;DHT22;53791;50.696;4.396;2022-12-07T01:03:47;5.00;99.90
23100;DHT22;53791;50.696;4.396;2022-12-07T01:06:17;4.80;99.90
23100;DHT22;53791;50.696;4.396;2022-12-07T01:08:45;4.80;99.90
23100;DHT22;53791;50.696;4.396;2022-12-07T01:11:15;4.70;99.90
23100;DHT22;53791;50.696;4.396;2022-12-07T01:13:44;4.60;99.90
23100;DHT22;53791;50.696;4.396;2022-12-07T01:16:13;4.70;99.90
23100;DHT22;53791;50.696;4.396;2022-12-07T01:18:42;4.70;99.90
23100;DHT22;53791;50.696;4.396;2022-12-07T01:21:18;4.50;99.90
23100;DHT22;53791;50.696;4.396;2022-12-07T01:23:47;4.40;99.90
23100;DHT22;53791;50.696;4.396;2022-12-07T01:26:17;4.30;99.90
23100;DHT22;53791;50.696;4.396;2022-12-07T01:28:45;4.30;99.90
23100;DHT22;53791;50.696;4.396;2022-12-07T01:31:20;4.40;99.90
23100;DHT22;53791;50.696;4.396;2022-12-07T01:33:46;4.40;99.90
23100;DHT22;53791;50.696;4.396;2022-12-07T01:36:19;4.60;99.90
23100;DHT22;53791;50.696;4.396;2022-12-07T01:38:49;4.50;99.90
23100;DHT22;53791;50.696;4.396;2022-12-07T01:41:21;4.50;99.90
23100;DHT22;53791;50.696;4.396;2022-12-07T01:44:18;4.50;99.90
23100;DHT22;53791;50.696;4.396;2022-12-07T01:46:38;4.50;99.90
23100;DHT22;53791;50.696;4.396;2022-12-07T01:49:08;4.50;99.90
23100;DHT22;53791;50.696;4.396;2022-12-07T01:51:37;4.50;99.90
23100;DHT22;53791;50.696;4.396;2022-12-07T01:54:06;4.40;99.90
23100;DHT22;53791;50.696;4.396;2022-12-07T01:56:34;4.50;99.90
23100;DHT22;53791;50.696;4.396;2022-12-07T01:59:03;4.50;99.90
23100;DHT22;53791;50.696;4.396;2022-12-07T02:01:30;4.60;99.90
23100;DHT22;53791;50.696;4.396;2022-12-07T02:03:58;4.60;99.90
23100;DHT22;53791;50.696;4.396;2022-12-07T02:06:26;4.50;99.90
23100;DHT22;53791;50.696;4.396;2022-12-07T02:08:54;4.50;99.90
23100;DHT22;53791;50.696;4.396;2022-12-07T02:11:21;4.50;99.90
23100;DHT22;53791;50.696;4.396;2022-12-07T02:13:49;4.50;99.90
23100;DHT22;53791;50.696;4.396;2022-12-07T02:16:47;4.50;99.90
23100;DHT22;53791;50.696;4.396;2022-12-07T02:22:29;4.50;99.90
23100;DHT22;53791;50.696;4.396;2022-12-07T02:25:08;4.40;99.90
23100;DHT22;53791;50.696;4.396;2022-12-07T02:27:41;4.50;99.90
23100;DHT22;53791;50.696;4.396;2022-12-07T02:30:13;4.50;99.90
23100;DHT22;53791;50.696;4.396;2022-12-07T02:35:28;4.50;99.90
23100;DHT22;53791;50.696;4.396;2022-12-07T02:38:08;4.60;99.90
23100;DHT22;53791;50.696;4.396;2022-12-07T02:41:00;4.60;99.90
23100;DHT22;53791;50.696;4.396;2022-12-07T02:43:17;4.50;99.90
23100;DHT22;53791;50.696;4.396;2022-12-07T02:45:46;4.50;99.90
23100;DHT22;53791;50.696;4.396;2022-12-07T02:48:17;4.50;99.90
23100;DHT22;53791;50.696;4.396;2022-12-07T02:50:53;4.50;99.90
23100;DHT22;53791;50.696;4.396;2022-12-07T02:53:35;4.50;99.90
23100;DHT22;53791;50.696;4.396;2022-12-07T02:59:12;4.60;99.90
23100;DHT22;53791;50.696;4.396;2022-12-07T03:01:48;4.60;99.90
23100;DHT22;53791;50.696;4.396;2022-12-07T03:04:40;4.70;99.90
23100;DHT22;53791;50.696;4.396;2022-12-07T03:07:08;4.80;99.90
23100;DHT22;53791;50.696;4.396;2022-12-07T03:09:38;4.80;99.90
23100;DHT22;53791;50.696;4.396;2022-12-07T03:12:09;4.80;99.90
23100;DHT22;53791;50.696;4.396;2022-12-07T03:14:45;5.00;99.90
23100;DHT22;53791;50.696;4.396;2022-12-07T03:17:16;4.90;99.90
23100;DHT22;53791;50.696;4.396;2022-12-07T03:19:46;4.90;99.90
23100;DHT22;53791;50.696;4.396;2022-12-07T03:22:15;5.00;99.90
23100;DHT22;53791;50.696;4.396;2022-12-07T03:24:52;4.80;99.90
23100;DHT22;53791;50.696;4.396;2022-12-07T03:30:16;4.80;99.90
23100;DHT22;53791;50.696;4.396;2022-12-07T03:32:52;4.70;99.90
23100;DHT22;53791;50.696;4.396;2022-12-07T03:38:06;4.70;99.90
23100;DHT22;53791;50.696;4.396;2022-12-07T03:40:47;4.80;99.90
23100;DHT22;53791;50.696;4.396;2022-12-07T03:43:13;4.80;99.90
23100;DHT22;53791;50.696;4.396;2022-12-07T03:45:43;4.80;99.90
23100;DHT22;53791;50.696;4.396;2022-12-07T03:48:25;4.80;99.90
23100;DHT22;53791;50.696;4.396;2022-12-07T03:53:50;4.70;99.90
23100;DHT22;53791;50.696;4.396;2022-12-07T03:56:14;4.70;99.90
23100;DHT22;53791;50.696;4.396;2022-12-07T03:58:42;4.70;99.90
23100;DHT22;53791;50.696;4.396;2022-12-07T04:01:10;4.70;99.90
23100;DHT22;53791;50.696;4.396;2022-12-07T04:03:37;4.70;99.90
23100;DHT22;53791;50.696;4.396;2022-12-07T04:06:05;4.70;99.90
23100;DHT22;53791;50.696;4.396;2022-12-07T04:08:33;4.70;99.90
23100;DHT22;53791;50.696;4.396;2022-12-07T04:11:01;4.70;99.90
23100;DHT22;53791;50.696;4.396;2022-12-07T04:13:28;4.60;99.90
23100;DHT22;53791;50.696;4.396;2022-12-07T04:15:56;4.60;99.90
23100;DHT22;53791;50.696;4.396;2022-12-07T04:18:23;4.60;99.90
23100;DHT22;53791;50.696;4.396;2022-12-07T04:20:51;4.60;99.90
23100;DHT22;53791;50.696;4.396;2022-12-07T04:23:18;4.70;99.90
23100;DHT22;53791;50.696;4.396;2022-12-07T04:25:48;4.70;99.90
23100;DHT22;53791;50.696;4.396;2022-12-07T04:28:15;4.70;99.90
23100;DHT22;53791;50.696;4.396;2022-12-07T04:30:43;4.70;99.90
23100;DHT22;53791;50.696;4.396;2022-12-07T04:33:10;4.60;99.90
23100;DHT22;53791;50.696;4.396;2022-12-07T04:35:38;4.50;99.90
23100;DHT22;53791;50.696;4.396;2022-12-07T04:38:05;4.40;99.90
23100;DHT22;53791;50.696;4.396;2022-12-07T04:40:33;4.30;99.90
23100;DHT22;53791;50.696;4.396;2022-12-07T04:43:00;4.50;99.90
23100;DHT22;53791;50.696;4.396;2022-12-07T04:45:28;4.50;99.90
23100;DHT22;53791;50.696;4.396;2022-12-07T04:47:55;4.40;99.90
23100;DHT22;53791;50.696;4.396;2022-12-07T04:50:23;4.40;99.90
23100;DHT22;53791;50.696;4.396;2022-12-07T04:52:50;4.40;99.90
23100;DHT22;53791;50.696;4.396;2022-12-07T04:55:18;4.40;99.90
23100;DHT22;53791;50.696;4.396;2022-12-07T04:57:45;4.40;99.90
23100;DHT22;53791;50.696;4.396;2022-12-07T05:00:13;4.50;99.90
23100;DHT22;53791;50.696;4.396;2022-12-07T05:02:40;4.50;99.90
23100;DHT22;53791;50.696;4.396;2022-12-07T05:05:08;4.40;99.90
23100;DHT22;53791;50.696;4.396;2022-12-07T05:07:36;4.30;99.90
23100;DHT22;53791;50.696;4.396;2022-12-07T05:10:03;4.40;99.90
23100;DHT22;53791;50.696;4.396;2022-12-07T05:12:31;4.30;99.90
23100;DHT22;53791;50.696;4.396;2022-12-07T05:14:59;4.30;99.90
23100;DHT22;53791;50.696;4.396;2022-12-07T05:17:26;4.20;99.90
23100;DHT22;53791;50.696;4.396;2022-12-07T05:19:53;4.20;99.90
23100;DHT22;53791;50.696;4.396;2022-12-07T05:22:21;4.30;99.90
23100;DHT22;53791;50.696;4.396;2022-12-07T05:24:48;4.30;99.90
23100;DHT22;53791;50.696;4.396;2022-12-07T05:27:16;4.50;99.90
23100;DHT22;53791;50.696;4.396;2022-12-07T05:29:43;4.50;99.90
23100;DHT22;53791;50.696;4.396;2022-12-07T05:32:11;4.50;99.90
23100;DHT22;53791;50.696;4.396;2022-12-07T05:34:38;4.50;99.90
23100;DHT22;53791;50.696;4.396;2022-12-07T05:37:06;4.60;99.90
23100;DHT22;53791;50.696;4.396;2022-12-07T05:39:34;4.70;99.90
23100;DHT22;53791;50.696;4.396;2022-12-07T05:42:01;4.60;99.90
23100;DHT22;53791;50.696;4.396;2022-12-07T05:44:42;4.60;99.90
23100;DHT22;53791;50.696;4.396;2022-12-07T05:47:12;4.70;99.90
23100;DHT22;53791;50.696;4.396;2022-12-07T05:49:39;4.60;99.90
23100;DHT22;53791;50.696;4.396;2022-12-07T05:52:07;4.60;99.90
23100;DHT22;53791;50.696;4.396;2022-12-07T05:54:35;4.50;99.90
23100;DHT22;53791;50.696;4.396;2022-12-07T05:57:02;4.50;99.90
23100;DHT22;53791;50.696;4.396;2022-12-07T05:59:30;4.50;99.90
23100;DHT22;53791;50.696;4.396;2022-12-07T06:02:00;4.70;99.90
23100;DHT22;53791;50.696;4.396;2022-12-07T06:04:31;4.60;99.90
23100;DHT22;53791;50.696;4.396;2022-12-07T06:06:59;4.60;99.90
23100;DHT22;53791;50.696;4.396;2022-12-07T06:09:27;4.60;99.90
23100;DHT22;53791;50.696;4.396;2022-12-07T06:11:56;4.70;99.90
23100;DHT22;53791;50.696;4.396;2022-12-07T06:14:41;4.60;99.90
23100;DHT22;53791;50.696;4.396;2022-12-07T06:17:09;4.60;99.90
23100;DHT22;53791;50.696;4.396;2022-12-07T06:19:37;4.40;99.90
23100;DHT22;53791;50.696;4.396;2022-12-07T06:22:05;4.40;99.90
23100;DHT22;53791;50.696;4.396;2022-12-07T06:24:33;4.30;99.90
23100;DHT22;53791;50.696;4.396;2022-12-07T06:27:01;4.30;99.90
23100;DHT22;53791;50.696;4.396;2022-12-07T06:29:28;4.30;99.90
23100;DHT22;53791;50.696;4.396;2022-12-07T06:31:56;4.30;99.90
23100;DHT22;53791;50.696;4.396;2022-12-07T06:34:25;4.20;99.90
23100;DHT22;53791;50.696;4.396;2022-12-07T06:36:53;4.40;99.90
23100;DHT22;53791;50.696;4.396;2022-12-07T06:39:23;4.40;99.90
23100;DHT22;53791;50.696;4.396;2022-12-07T06:41:52;4.50;99.90
23100;DHT22;53791;50.696;4.396;2022-12-07T06:44:21;4.70;99.90
23100;DHT22;53791;50.696;4.396;2022-12-07T06:46:49;4.60;99.90
23100;DHT22;53791;50.696;4.396;2022-12-07T06:49:17;4.50;99.90
23100;DHT22;53791;50.696;4.396;2022-12-07T06:51:44;4.40;99.90
23100;DHT22;53791;50.696;4.396;2022-12-07T06:54:13;4.20;99.90
23100;DHT22;53791;50.696;4.396;2022-12-07T06:56:41;4.30;99.90
23100;DHT22;53791;50.696;4.396;2022-12-07T06:59:09;4.40;99.90
23100;DHT22;53791;50.696;4.396;2022-12-07T07:01:37;4.50;99.90
23100;DHT22;53791;50.696;4.396;2022-12-07T07:04:05;4.50;99.90
23100;DHT22;53791;50.696;4.396;2022-12-07T07:06:33;4.50;99.90
23100;DHT22;53791;50.696;4.396;2022-12-07T07:09:00;4.60;99.90
23100;DHT22;53791;50.696;4.396;2022-12-07T07:11:28;4.60;99.90
23100;DHT22;53791;50.696;4.396;2022-12-07T07:13:55;4.70;99.90
23100;DHT22;53791;50.696;4.396;2022-12-07T07:16:24;4.80;99.90
23100;DHT22;53791;50.696;4.396;2022-12-07T07:18:52;4.80;99.90
23100;DHT22;53791;50.696;4.396;2022-12-07T07:21:19;4.80;99.90
23100;DHT22;53791;50.696;4.396;2022-12-07T07:23:47;5.00;99.90
23100;DHT22;53791;50.696;4.396;2022-12-07T07:26:14;5.10;99.90
23100;DHT22;53791;50.696;4.396;2022-12-07T07:28:42;5.10;99.90
23100;DHT22;53791;50.696;4.396;2022-12-07T07:31:09;5.10;99.90
23100;DHT22;53791;50.696;4.396;2022-12-07T07:33:37;5.00;99.90
23100;DHT22;53791;50.696;4.396;2022-12-07T07:36:05;4.80;99.90
23100;DHT22;53791;50.696;4.396;2022-12-07T07:38:33;4.70;99.90
23100;DHT22;53791;50.696;4.396;2022-12-07T07:41:00;4.80;99.90
23100;DHT22;53791;50.696;4.396;2022-12-07T07:43:28;4.70;99.90
23100;DHT22;53791;50.696;4.396;2022-12-07T07:45:55;4.70;99.90
23100;DHT22;53791;50.696;4.396;2022-12-07T07:48:23;4.80;99.90
23100;DHT22;53791;50.696;4.396;2022-12-07T07:50:51;4.80;99.90
23100;DHT22;53791;50.696;4.396;2022-12-07T07:53:19;4.90;99.90
23100;DHT22;53791;50.696;4.396;2022-12-07T07:55:53;4.90;99.90
23100;DHT22;53791;50.696;4.396;2022-12-07T07:58:21;4.90;99.90
23100;DHT22;53791;50.696;4.396;2022-12-07T08:00:49;5.30;99.90
23100;DHT22;53791;50.696;4.396;2022-12-07T08:03:17;5.40;99.90
23100;DHT22;53791;50.696;4.396;2022-12-07T08:05:44;5.20;99.90
23100;DHT22;53791;50.696;4.396;2022-12-07T08:08:12;5.10;99.90
23100;DHT22;53791;50.696;4.396;2022-12-07T08:10:39;5.00;99.90
23100;DHT22;53791;50.696;4.396;2022-12-07T08:13:07;5.00;99.90
23100;DHT22;53791;50.696;4.396;2022-12-07T08:15:39;4.80;99.90
23100;DHT22;53791;50.696;4.396;2022-12-07T08:18:07;4.80;99.90
23100;DHT22;53791;50.696;4.396;2022-12-07T08:20:36;4.80;99.90
23100;DHT22;53791;50.696;4.396;2022-12-07T08:23:04;5.00;99.90
23100;DHT22;53791;50.696;4.396;2022-12-07T08:25:33;4.90;99.90
23100;DHT22;53791;50.696;4.396;2022-12-07T08:28:01;5.00;99.90
23100;DHT22;53791;50.696;4.396;2022-12-07T08:30:29;5.20;99.90
23100;DHT22;53791;50.696;4.396;2022-12-07T08:33:16;5.10;99.90
23100;DHT22;53791;50.696;4.396;2022-12-07T08:35:44;5.30;99.90
23100;DHT22;53791;50.696;4.396;2022-12-07T08:38:11;5.30;99.90
23100;DHT22;53791;50.696;4.396;2022-12-07T08:40:39;5.40;99.90
23100;DHT22;53791;50.696;4.396;2022-12-07T08:43:06;5.40;99.90
23100;DHT22;53791;50.696;4.396;2022-12-07T08:45:34;5.20;99.90
23100;DHT22;53791;50.696;4.396;2022-12-07T08:48:07;5.30;99.90
23100;DHT22;53791;50.696;4.396;2022-12-07T08:50:37;5.10;99.90
23100;DHT22;53791;50.696;4.396;2022-12-07T08:53:05;5.10;99.90
23100;DHT22;53791;50.696;4.396;2022-12-07T08:55:34;5.00;99.90
23100;DHT22;53791;50.696;4.396;2022-12-07T08:58:02;5.00;99.90
23100;DHT22;53791;50.696;4.396;2022-12-07T09:00:30;4.90;99.90
23100;DHT22;53791;50.696;4.396;2022-12-07T09:02:58;4.90;99.90
23100;DHT22;53791;50.696;4.396;2022-12-07T09:05:26;4.90;99.90
23100;DHT22;53791;50.696;4.396;2022-12-07T09:07:56;5.00;99.90
23100;DHT22;53791;50.696;4.396;2022-12-07T09:10:24;5.10;99.90
23100;DHT22;53791;50.696;4.396;2022-12-07T09:12:52;5.20;99.90
23100;DHT22;53791;50.696;4.396;2022-12-07T09:15:19;5.30;99.90
23100;DHT22;53791;50.696;4.396;2022-12-07T09:17:47;5.40;99.90
23100;DHT22;53791;50.696;4.396;2022-12-07T09:20:15;5.50;99.90
23100;DHT22;53791;50.696;4.396;2022-12-07T09:22:42;5.60;99.90
23100;DHT22;53791;50.696;4.396;2022-12-07T09:25:10;5.60;99.90
23100;DHT22;53791;50.696;4.396;2022-12-07T09:27:37;5.50;99.90
23100;DHT22;53791;50.696;4.396;2022-12-07T09:30:06;5.50;99.90
23100;DHT22;53791;50.696;4.396;2022-12-07T09:32:34;5.60;99.90
23100;DHT22;53791;50.696;4.396;2022-12-07T09:35:01;5.60;99.90
23100;DHT22;53791;50.696;4.396;2022-12-07T09:37:29;5.70;99.90
23100;DHT22;53791;50.696;4.396;2022-12-07T09:39:58;5.90;99.90
23100;DHT22;53791;50.696;4.396;2022-12-07T09:42:34;6.00;99.90
23100;DHT22;53791;50.696;4.396;2022-12-07T09:44:59;5.90;99.90
23100;DHT22;53791;50.696;4.396;2022-12-07T09:47:28;5.80;99.90
23100;DHT22;53791;50.696;4.396;2022-12-07T09:50:00;5.80;99.90
23100;DHT22;53791;50.696;4.396;2022-12-07T09:52:27;5.80;99.90
23100;DHT22;53791;50.696;4.396;2022-12-07T09:54:56;6.00;99.90
23100;DHT22;53791;50.696;4.396;2022-12-07T09:57:31;6.30;99.90
23100;DHT22;53791;50.696;4.396;2022-12-07T10:00:16;6.50;99.90
23100;DHT22;53791;50.696;4.396;2022-12-07T10:03:00;6.60;99.90
23100;DHT22;53791;50.696;4.396;2022-12-07T10:05:37;6.60;99.90
23100;DHT22;53791;50.696;4.396;2022-12-07T10:08:07;6.70;99.90
23100;DHT22;53791;50.696;4.396;2022-12-07T10:10:35;6.90;99.90
23100;DHT22;53791;50.696;4.396;2022-12-07T10:13:08;7.10;99.90
23100;DHT22;53791;50.696;4.396;2022-12-07T10:15:55;7.10;99.90
23100;DHT22;53791;50.696;4.396;2022-12-07T10:18:30;7.00;99.90
23100;DHT22;53791;50.696;4.396;2022-12-07T10:21:09;6.90;99.90
23100;DHT22;53791;50.696;4.396;2022-12-07T10:23:35;7.00;99.90
23100;DHT22;53791;50.696;4.396;2022-12-07T10:26:36;7.20;99.90
23100;DHT22;53791;50.696;4.396;2022-12-07T10:29:19;7.30;99.90
23100;DHT22;53791;50.696;4.396;2022-12-07T10:31:48;7.30;99.90
23100;DHT22;53791;50.696;4.396;2022-12-07T10:34:24;7.40;99.90
23100;DHT22;53791;50.696;4.396;2022-12-07T10:36:53;7.10;99.90
23100;DHT22;53791;50.696;4.396;2022-12-07T10:39:22;7.00;99.90
23100;DHT22;53791;50.696;4.396;2022-12-07T10:42:01;7.00;99.90
23100;DHT22;53791;50.696;4.396;2022-12-07T10:44:31;7.10;99.90
23100;DHT22;53791;50.696;4.396;2022-12-07T10:47:34;7.20;99.90
23100;DHT22;53791;50.696;4.396;2022-12-07T10:52:50;7.60;99.90
23100;DHT22;53791;50.696;4.396;2022-12-07T10:55:20;7.70;99.90
23100;DHT22;53791;50.696;4.396;2022-12-07T10:58:16;7.70;99.90
23100;DHT22;53791;50.696;4.396;2022-12-07T11:00:43;7.70;99.90
23100;DHT22;53791;50.696;4.396;2022-12-07T11:03:36;7.70;99.90
23100;DHT22;53791;50.696;4.396;2022-12-07T11:06:10;7.80;99.90
23100;DHT22;53791;50.696;4.396;2022-12-07T11:11:59;7.80;99.90
23100;DHT22;53791;50.696;4.396;2022-12-07T11:14:50;7.90;99.90
23100;DHT22;53791;50.696;4.396;2022-12-07T11:20:27;8.00;99.90
23100;DHT22;53791;50.696;4.396;2022-12-07T11:23:11;7.80;99.90
23100;DHT22;53791;50.696;4.396;2022-12-07T11:25:43;7.60;99.90
23100;DHT22;53791;50.696;4.396;2022-12-07T11:28:31;7.80;99.90
23100;DHT22;53791;50.696;4.396;2022-12-07T11:31:24;7.70;99.90
23100;DHT22;53791;50.696;4.396;2022-12-07T11:36:46;7.10;99.90
23100;DHT22;53791;50.696;4.396;2022-12-07T11:42:15;7.10;99.90
23100;DHT22;53791;50.696;4.396;2022-12-07T11:44:49;7.00;99.90
23100;DHT22;53791;50.696;4.396;2022-12-07T11:47:30;6.80;99.90
23100;DHT22;53791;50.696;4.396;2022-12-07T11:52:58;6.90;99.90
23100;DHT22;53791;50.696;4.396;2022-12-07T11:58:22;6.70;99.90
23100;DHT22;53791;50.696;4.396;2022-12-07T12:00:45;6.80;99.90
23100;DHT22;53791;50.696;4.396;2022-12-07T12:03:15;6.90;99.90
23100;DHT22;53791;50.696;4.396;2022-12-07T12:05:43;7.00;99.90
23100;DHT22;53791;50.696;4.396;2022-12-07T12:08:16;7.00;99.90
23100;DHT22;53791;50.696;4.396;2022-12-07T12:16:38;7.00;99.90
23100;DHT22;53791;50.696;4.396;2022-12-07T12:19:32;7.00;99.90
23100;DHT22;53791;50.696;4.396;2022-12-07T12:22:18;7.10;99.90
23100;DHT22;53791;50.696;4.396;2022-12-07T12:24:49;7.10;99.90
23100;DHT22;53791;50.696;4.396;2022-12-07T12:27:23;7.10;99.90
23100;DHT22;53791;50.696;4.396;2022-12-07T12:29:55;7.00;99.90
23100;DHT22;53791;50.696;4.396;2022-12-07T12:32:41;7.00;99.90
23100;DHT22;53791;50.696;4.396;2022-12-07T12:37:55;7.20;99.90
23100;DHT22;53791;50.696;4.396;2022-12-07T12:42:57;7.40;99.90
23100;DHT22;53791;50.696;4.396;2022-12-07T12:45:30;7.30;99.90
23100;DHT22;53791;50.696;4.396;2022-12-07T12:48:02;7.20;99.90
23100;DHT22;53791;50.696;4.396;2022-12-07T12:50:35;7.30;99.90
23100;DHT22;53791;50.696;4.396;2022-12-07T12:53:21;7.20;99.90
23100;DHT22;53791;50.696;4.396;2022-12-07T12:58:37;7.30;99.90
23100;DHT22;53791;50.696;4.396;2022-12-07T13:01:39;7.20;99.90
23100;DHT22;53791;50.696;4.396;2022-12-07T13:04:24;7.20;99.90
23100;DHT22;53791;50.696;4.396;2022-12-07T13:06:51;7.20;99.90
23100;DHT22;53791;50.696;4.396;2022-12-07T13:09:26;7.20;99.90
23100;DHT22;53791;50.696;4.396;2022-12-07T13:11:59;7.10;99.90
23100;DHT22;53791;50.696;4.396;2022-12-07T13:14:41;7.20;99.90
23100;DHT22;53791;50.696;4.396;2022-12-07T13:20:08;7.00;99.90
23100;DHT22;53791;50.696;4.396;2022-12-07T13:22:37;7.10;99.90
23100;DHT22;53791;50.696;4.396;2022-12-07T13:25:31;7.10;99.90
23100;DHT22;53791;50.696;4.396;2022-12-07T13:28:16;7.00;99.90
23100;DHT22;53791;50.696;4.396;2022-12-07T13:33:35;7.00;99.90
23100;DHT22;53791;50.696;4.396;2022-12-07T13:36:03;7.00;99.90
23100;DHT22;53791;50.696;4.396;2022-12-07T13:38:34;7.10;99.90
23100;DHT22;53791;50.696;4.396;2022-12-07T13:41:19;7.00;99.90
23100;DHT22;53791;50.696;4.396;2022-12-07T13:43:54;7.20;99.90
23100;DHT22;53791;50.696;4.396;2022-12-07T13:46:20;7.30;99.90
23100;DHT22;53791;50.696;4.396;2022-12-07T13:48:49;7.50;99.90
23100;DHT22;53791;50.696;4.396;2022-12-07T13:51:20;7.40;99.90
23100;DHT22;53791;50.696;4.396;2022-12-07T13:53:50;7.40;99.90
23100;DHT22;53791;50.696;4.396;2022-12-07T13:56:20;7.30;99.90
23100;DHT22;53791;50.696;4.396;2022-12-07T13:58:47;7.20;99.90
23100;DHT22;53791;50.696;4.396;2022-12-07T14:01:15;7.10;99.90
23100;DHT22;53791;50.696;4.396;2022-12-07T14:03:42;7.20;99.90
23100;DHT22;53791;50.696;4.396;2022-12-07T14:08:46;7.20;99.90
23100;DHT22;53791;50.696;4.396;2022-12-07T14:11:18;7.20;99.90
23100;DHT22;53791;50.696;4.396;2022-12-07T14:13:55;7.20;99.90
23100;DHT22;53791;50.696;4.396;2022-12-07T14:16:36;7.10;99.90
23100;DHT22;53791;50.696;4.396;2022-12-07T14:21:35;6.80;99.90
23100;DHT22;53791;50.696;4.396;2022-12-07T14:24:09;6.70;99.90
23100;DHT22;53791;50.696;4.396;2022-12-07T14:26:38;6.60;99.90
23100;DHT22;53791;50.696;4.396;2022-12-07T14:29:31;6.70;99.90
23100;DHT22;53791;50.696;4.396;2022-12-07T14:31:58;6.70;99.90
23100;DHT22;53791;50.696;4.396;2022-12-07T14:34:26;6.80;99.90
23100;DHT22;53791;50.696;4.396;2022-12-07T14:36:55;6.80;99.90
23100;DHT22;53791;50.696;4.396;2022-12-07T14:39:23;6.80;99.90
23100;DHT22;53791;50.696;4.396;2022-12-07T14:41:50;6.90;99.90
23100;DHT22;53791;50.696;4.396;2022-12-07T14:44:20;6.90;99.90
23100;DHT22;53791;50.696;4.396;2022-12-07T14:46:49;6.80;99.90
23100;DHT22;53791;50.696;4.396;2022-12-07T14:49:17;6.80;99.90
23100;DHT22;53791;50.696;4.396;2022-12-07T14:51:46;6.80;99.90
23100;DHT22;53791;50.696;4.396;2022-12-07T14:54:18;6.80;99.90
23100;DHT22;53791;50.696;4.396;2022-12-07T14:56:47;6.90;99.90
23100;DHT22;53791;50.696;4.396;2022-12-07T14:59:18;7.00;99.90
23100;DHT22;53791;50.696;4.396;2022-12-07T15:01:46;6.90;99.90
23100;DHT22;53791;50.696;4.396;2022-12-07T15:04:13;6.90;99.90
23100;DHT22;53791;50.696;4.396;2022-12-07T15:06:41;6.90;99.90
23100;DHT22;53791;50.696;4.396;2022-12-07T15:09:11;7.00;99.90
23100;DHT22;53791;50.696;4.396;2022-12-07T15:11:38;7.00;99.90
23100;DHT22;53791;50.696;4.396;2022-12-07T15:14:06;7.10;99.90
23100;DHT22;53791;50.696;4.396;2022-12-07T15:16:35;7.10;99.90
23100;DHT22;53791;50.696;4.396;2022-12-07T15:19:03;7.10;99.90
23100;DHT22;53791;50.696;4.396;2022-12-07T15:21:30;7.00;99.90
23100;DHT22;53791;50.696;4.396;2022-12-07T15:23:58;7.00;99.90
23100;DHT22;53791;50.696;4.396;2022-12-07T15:26:25;7.00;99.90
23100;DHT22;53791;50.696;4.396;2022-12-07T15:28:54;7.10;99.90
23100;DHT22;53791;50.696;4.396;2022-12-07T15:31:21;7.00;99.90
23100;DHT22;53791;50.696;4.396;2022-12-07T15:33:49;7.00;99.90
23100;DHT22;53791;50.696;4.396;2022-12-07T15:36:21;7.10;99.90
23100;DHT22;53791;50.696;4.396;2022-12-07T15:38:49;7.10;99.90
23100;DHT22;53791;50.696;4.396;2022-12-07T15:41:17;7.10;99.90
23100;DHT22;53791;50.696;4.396;2022-12-07T15:43:45;7.10;99.90
23100;DHT22;53791;50.696;4.396;2022-12-07T15:46:38;7.10;99.90
23100;DHT22;53791;50.696;4.396;2022-12-07T15:49:12;7.10;99.90
23100;DHT22;53791;50.696;4.396;2022-12-07T15:51:41;7.10;99.90
23100;DHT22;53791;50.696;4.396;2022-12-07T15:54:21;7.10;99.90
23100;DHT22;53791;50.696;4.396;2022-12-07T15:56:49;7.10;99.90
23100;DHT22;53791;50.696;4.396;2022-12-07T15:59:17;7.10;99.90
23100;DHT22;53791;50.696;4.396;2022-12-07T16:01:44;7.10;99.90
23100;DHT22;53791;50.696;4.396;2022-12-07T16:04:12;7.10;99.90
23100;DHT22;53791;50.696;4.396;2022-12-07T16:06:40;7.00;99.90
23100;DHT22;53791;50.696;4.396;2022-12-07T16:09:08;7.00;99.90
23100;DHT22;53791;50.696;4.396;2022-12-07T16:11:35;7.00;99.90
23100;DHT22;53791;50.696;4.396;2022-12-07T16:14:03;7.00;99.90
23100;DHT22;53791;50.696;4.396;2022-12-07T16:16:30;7.00;99.90
23100;DHT22;53791;50.696;4.396;2022-12-07T16:18:58;6.90;99.90
23100;DHT22;53791;50.696;4.396;2022-12-07T16:21:26;6.80;99.90
23100;DHT22;53791;50.696;4.396;2022-12-07T16:23:53;6.80;99.90
23100;DHT22;53791;50.696;4.396;2022-12-07T16:26:21;6.80;99.90
23100;DHT22;53791;50.696;4.396;2022-12-07T16:28:50;6.70;99.90
23100;DHT22;53791;50.696;4.396;2022-12-07T16:31:20;6.70;99.90
23100;DHT22;53791;50.696;4.396;2022-12-07T16:33:49;6.70;99.90
23100;DHT22;53791;50.696;4.396;2022-12-07T16:36:17;6.60;99.90
23100;DHT22;53791;50.696;4.396;2022-12-07T16:38:45;6.60;99.90
23100;DHT22;53791;50.696;4.396;2022-12-07T16:41:12;6.40;99.90
23100;DHT22;53791;50.696;4.396;2022-12-07T16:43:40;6.20;99.90
23100;DHT22;53791;50.696;4.396;2022-12-07T16:46:08;6.00;99.90
23100;DHT22;53791;50.696;4.396;2022-12-07T16:48:37;5.90;99.90
23100;DHT22;53791;50.696;4.396;2022-12-07T16:51:06;5.80;99.90
23100;DHT22;53791;50.696;4.396;2022-12-07T16:53:35;5.80;99.90
23100;DHT22;53791;50.696;4.396;2022-12-07T16:56:04;5.80;99.90
23100;DHT22;53791;50.696;4.396;2022-12-07T16:58:33;5.80;99.90
23100;DHT22;53791;50.696;4.396;2022-12-07T17:01:11;5.80;99.90
23100;DHT22;53791;50.696;4.396;2022-12-07T17:03:39;5.80;99.90
23100;DHT22;53791;50.696;4.396;2022-12-07T17:06:15;5.80;99.90
23100;DHT22;53791;50.696;4.396;2022-12-07T17:08:44;5.90;99.90
23100;DHT22;53791;50.696;4.396;2022-12-07T17:11:17;5.80;99.90